Time;durP1;ratioP1;P1;durP2;ratioP2;P2;SDS_P1;SDS_P2;PMS_P1;PMS_P2;Temp;Humidity;BMP_temperature;BMP_pressure;BME280_temperature;BME280_humidity;BME280_pressure;Samples;Min_cycle;Max_cycle;Signal;HPM_P1;HPM_P2
2023/08/05 00:00:04;;;;;;;9.02;3.75;;;15.70;99.90;;;;;;5006883;28;20030;-74
2023/08/05 00:02:30;;;;;;;15.57;4.63;;;15.70;99.90;;;;;;5007160;28;20058;-74
2023/08/05 00:04:55;;;;;;;11.85;4.32;;;15.70;99.90;;;;;;5021106;28;20040;-76
2023/08/05 00:07:21;;;;;;;8.63;4.15;;;15.70;99.90;;;;;;5026061;28;20034;-75
2023/08/05 00:09:47;;;;;;;12.32;4.25;;;15.70;99.90;;;;;;5021244;28;20040;-75
2023/08/05 00:12:12;;;;;;;8.73;3.90;;;15.60;99.90;;;;;;5006132;28;20034;-74
2023/08/05 00:14:38;;;;;;;10.75;4.85;;;15.60;99.90;;;;;;5006877;28;20026;-75
2023/08/05 00:17:04;;;;;;;15.02;4.90;;;15.60;99.90;;;;;;5006183;28;20032;-75
2023/08/05 00:19:30;;;;;;;10.88;4.40;;;15.60;99.90;;;;;;5006570;28;20030;-75
2023/08/05 00:21:56;;;;;;;12.43;4.47;;;15.50;99.90;;;;;;5005371;28;20023;-74
2023/08/05 00:24:22;;;;;;;13.52;4.82;;;15.50;99.90;;;;;;5007184;28;20037;-74
2023/08/05 00:26:47;;;;;;;14.32;5.10;;;15.50;99.90;;;;;;5007037;28;20040;-74
2023/08/05 00:29:14;;;;;;;11.93;4.78;;;15.50;99.90;;;;;;5006814;28;20133;-75
2023/08/05 00:31:39;;;;;;;9.50;4.55;;;15.40;99.90;;;;;;5006544;28;20052;-74
2023/08/05 00:34:05;;;;;;;11.85;4.55;;;15.30;99.90;;;;;;5014968;28;20109;-74
2023/08/05 00:36:30;;;;;;;14.48;4.78;;;15.30;99.90;;;;;;5024546;28;20037;-74
2023/08/05 00:38:56;;;;;;;12.30;4.63;;;15.20;99.90;;;;;;5025349;28;20173;-75
2023/08/05 00:41:22;;;;;;;15.60;5.38;;;15.20;99.90;;;;;;5025697;28;20026;-74
2023/08/05 00:43:47;;;;;;;15.02;5.50;;;15.10;99.90;;;;;;5025774;28;20148;-74
2023/08/05 00:46:14;;;;;;;14.43;5.88;;;15.00;99.90;;;;;;5025781;28;20053;-74
2023/08/05 00:48:40;;;;;;;19.50;5.30;;;15.00;99.90;;;;;;5024417;28;20038;-74
2023/08/05 00:51:07;;;;;;;15.68;5.68;;;14.90;99.90;;;;;;5025396;28;20491;-74
2023/08/05 00:53:36;;;;;;;15.40;5.35;;;14.90;99.90;;;;;;5025024;28;20072;-75
2023/08/05 00:56:03;;;;;;;12.07;5.15;;;14.90;99.90;;;;;;5025781;28;20025;-76
2023/08/05 00:58:31;;;;;;;12.00;5.40;;;14.80;99.90;;;;;;5023882;28;20026;-74
2023/08/05 01:00:59;;;;;;;17.80;5.82;;;14.90;99.90;;;;;;5025365;28;20026;-75
2023/08/05 01:03:25;;;;;;;9.38;5.10;;;14.90;99.90;;;;;;5024442;28;20034;-74
2023/08/05 01:05:52;;;;;;;12.43;5.00;;;14.80;99.90;;;;;;5024591;28;20022;-75
2023/08/05 01:08:20;;;;;;;9.45;5.13;;;14.80;99.90;;;;;;5024504;28;20038;-74
2023/08/05 01:10:46;;;;;;;14.90;5.80;;;14.70;99.90;;;;;;5023338;28;20085;-75
2023/08/05 01:13:11;;;;;;;14.75;6.07;;;14.70;99.90;;;;;;5009246;28;20066;-75
2023/08/05 01:15:38;;;;;;;16.02;5.50;;;14.70;99.90;;;;;;5015682;28;20034;-76
2023/08/05 01:18:05;;;;;;;12.27;4.97;;;14.70;99.90;;;;;;5023474;28;20041;-75
2023/08/05 01:20:45;;;;;;;13.55;5.60;;;14.70;99.90;;;;;;5023268;28;20029;-75
2023/08/05 01:23:37;;;;;;;15.10;6.50;;;14.60;99.90;;;;;;5024076;28;20069;-75
2023/08/05 01:26:05;;;;;;;15.55;5.88;;;14.60;99.90;;;;;;5025083;28;20557;-75
2023/08/05 01:28:32;;;;;;;13.80;5.10;;;14.60;99.90;;;;;;5024746;28;20496;-75
2023/08/05 01:31:00;;;;;;;14.40;6.07;;;14.60;99.90;;;;;;5024544;28;20098;-75
2023/08/05 01:33:28;;;;;;;14.35;5.38;;;14.70;99.90;;;;;;5024682;28;20042;-76
2023/08/05 01:35:55;;;;;;;13.52;5.97;;;14.70;99.90;;;;;;5025135;28;20079;-76
2023/08/05 01:38:22;;;;;;;18.40;6.03;;;14.60;99.90;;;;;;5023798;28;20057;-75
2023/08/05 01:40:47;;;;;;;15.63;5.80;;;14.60;99.90;;;;;;5023255;28;20033;-74
2023/08/05 01:43:13;;;;;;;16.20;5.82;;;14.70;99.90;;;;;;5023440;28;20412;-75
2023/08/05 01:45:39;;;;;;;14.50;5.60;;;14.70;99.90;;;;;;5023356;28;20025;-75
2023/08/05 01:48:05;;;;;;;12.05;5.60;;;14.70;99.90;;;;;;5024497;28;20059;-76
2023/08/05 01:50:30;;;;;;;11.75;5.20;;;14.70;99.90;;;;;;5025012;28;20026;-74
2023/08/05 01:52:56;;;;;;;9.70;5.55;;;14.80;99.90;;;;;;5023369;28;20049;-76
2023/08/05 01:55:21;;;;;;;12.18;5.38;;;14.80;99.90;;;;;;5024683;28;20034;-75
2023/08/05 01:57:47;;;;;;;16.67;6.10;;;14.80;99.90;;;;;;5023408;28;20040;-74
2023/08/05 02:00:13;;;;;;;11.85;6.22;;;14.80;99.90;;;;;;5024092;28;20041;-74
2023/08/05 02:02:39;;;;;;;16.95;6.32;;;14.80;99.90;;;;;;5022697;28;20061;-75
2023/08/05 02:05:05;;;;;;;13.57;5.35;;;14.80;99.90;;;;;;5024550;28;20036;-75
2023/08/05 02:07:30;;;;;;;17.27;5.65;;;14.80;99.90;;;;;;5022494;28;20022;-75
2023/08/05 02:09:56;;;;;;;11.25;5.18;;;14.80;99.90;;;;;;5025019;28;20391;-75
2023/08/05 02:12:22;;;;;;;14.52;6.13;;;14.80;99.90;;;;;;5025023;28;20030;-75
2023/08/05 02:14:48;;;;;;;15.95;6.70;;;14.80;99.90;;;;;;5022001;28;20069;-74
2023/08/05 02:17:13;;;;;;;18.67;6.15;;;14.80;99.90;;;;;;5022839;28;20112;-74
2023/08/05 02:19:39;;;;;;;15.25;5.85;;;14.80;99.90;;;;;;5023868;28;20034;-74
2023/08/05 02:22:05;;;;;;;17.67;6.18;;;14.80;99.90;;;;;;5021314;28;20133;-75
2023/08/05 02:24:30;;;;;;;14.73;6.25;;;14.80;99.90;;;;;;5017743;28;20029;-73
2023/08/05 02:26:56;;;;;;;10.90;5.70;;;14.80;99.90;;;;;;5022091;28;20479;-74
2023/08/05 02:29:22;;;;;;;13.52;5.78;;;14.80;99.90;;;;;;5022470;28;20030;-74
2023/08/05 02:31:47;;;;;;;11.88;4.90;;;14.70;99.90;;;;;;5022789;28;20034;-73
2023/08/05 02:34:13;;;;;;;16.52;5.43;;;14.80;99.90;;;;;;5023457;28;20057;-75
2023/08/05 02:36:39;;;;;;;18.65;5.95;;;14.80;99.90;;;;;;5024050;28;20033;-74
2023/08/05 02:39:04;;;;;;;16.25;5.47;;;14.80;99.90;;;;;;5022474;28;20026;-74
2023/08/05 02:41:30;;;;;;;13.05;5.78;;;14.70;99.90;;;;;;5021953;28;20057;-74
2023/08/05 02:43:56;;;;;;;15.13;5.28;;;14.80;99.90;;;;;;5023889;28;20030;-76
2023/08/05 02:46:21;;;;;;;11.98;5.05;;;14.80;99.90;;;;;;5022547;28;20040;-74
2023/08/05 02:48:47;;;;;;;11.88;5.47;;;14.70;99.90;;;;;;5023552;28;20038;-73
2023/08/05 02:51:12;;;;;;;12.48;5.40;;;14.70;99.90;;;;;;5021347;28;20060;-75
2023/08/05 02:53:38;;;;;;;12.73;5.15;;;14.70;99.90;;;;;;5023619;28;20101;-74
2023/08/05 02:56:03;;;;;;;10.23;5.53;;;14.60;99.90;;;;;;5021949;28;20030;-74
2023/08/05 02:58:29;;;;;;;15.80;5.82;;;14.60;99.90;;;;;;5021908;28;20026;-74
2023/08/05 03:01:05;;;;;;;16.55;5.22;;;14.60;99.90;;;;;;5023719;28;20117;-74
2023/08/05 03:03:30;;;;;;;11.15;5.25;;;14.50;99.90;;;;;;5021657;28;20048;-75
2023/08/05 03:05:56;;;;;;;10.40;4.68;;;14.50;99.90;;;;;;5023573;28;20026;-75
2023/08/05 03:08:22;;;;;;;9.07;5.03;;;14.50;99.90;;;;;;5023780;28;20478;-74
2023/08/05 03:10:59;;;;;;;12.00;4.65;;;14.50;99.90;;;;;;5023416;28;20502;-73
2023/08/05 03:13:26;;;;;;;12.43;5.32;;;14.40;99.90;;;;;;5022135;28;20037;-74
2023/08/05 03:15:55;;;;;;;13.18;5.43;;;14.40;99.90;;;;;;5023765;28;20030;-74
2023/08/05 03:18:21;;;;;;;12.18;5.30;;;14.40;99.90;;;;;;5023512;28;20030;-74
2023/08/05 03:20:48;;;;;;;12.85;4.90;;;14.40;99.90;;;;;;5023878;28;20530;-74
2023/08/05 03:23:13;;;;;;;11.32;5.18;;;14.40;99.90;;;;;;5018588;28;20098;-73
2023/08/05 03:25:39;;;;;;;8.98;4.43;;;14.30;99.90;;;;;;5022999;28;20037;-74
2023/08/05 03:28:05;;;;;;;11.05;4.97;;;14.30;99.90;;;;;;5018452;28;20026;-73
2023/08/05 03:30:30;;;;;;;19.13;5.10;;;14.30;99.90;;;;;;5002642;28;20492;-74
2023/08/05 03:32:56;;;;;;;15.43;5.55;;;14.20;99.90;;;;;;5004253;28;20070;-74
2023/08/05 03:35:22;;;;;;;14.55;5.70;;;14.20;99.90;;;;;;5007984;28;20432;-74
2023/08/05 03:37:48;;;;;;;13.55;5.55;;;14.20;99.90;;;;;;5007905;28;20034;-74
2023/08/05 03:40:13;;;;;;;13.52;5.70;;;14.10;99.90;;;;;;5012467;28;20057;-74
2023/08/05 03:42:40;;;;;;;14.75;5.30;;;14.10;99.90;;;;;;5027204;28;20078;-75
2023/08/05 03:45:06;;;;;;;12.25;5.30;;;14.10;99.90;;;;;;5026786;28;20032;-74
2023/08/05 03:47:33;;;;;;;11.70;5.25;;;14.00;99.90;;;;;;5025638;28;20026;-75
2023/08/05 03:50:00;;;;;;;11.02;5.35;;;14.00;99.90;;;;;;5027342;28;20144;-74
2023/08/05 03:52:26;;;;;;;14.98;5.40;;;14.00;99.90;;;;;;5025821;28;20119;-76
2023/08/05 03:54:53;;;;;;;11.15;5.07;;;14.00;99.90;;;;;;5024983;28;20065;-73
2023/08/05 03:57:18;;;;;;;14.85;6.25;;;14.00;99.90;;;;;;5022881;28;20133;-74
2023/08/05 03:59:45;;;;;;;14.57;5.80;;;13.90;99.90;;;;;;5007167;28;20034;-73
2023/08/05 04:02:11;;;;;;;11.00;5.95;;;13.90;99.90;;;;;;5007578;28;20031;-73
2023/08/05 04:04:37;;;;;;;12.15;5.68;;;13.90;99.90;;;;;;5008122;28;20022;-73
2023/08/05 04:07:02;;;;;;;15.15;5.53;;;13.90;99.90;;;;;;5026771;28;20026;-73
2023/08/05 04:09:31;;;;;;;19.33;6.75;;;13.80;99.90;;;;;;5025314;28;20061;-76
2023/08/05 04:12:03;;;;;;;16.65;6.13;;;13.80;99.90;;;;;;5026217;28;20026;-76
2023/08/05 04:14:30;;;;;;;11.68;5.43;;;13.70;99.90;;;;;;5026018;28;20034;-74
2023/08/05 04:16:56;;;;;;;14.68;5.93;;;13.80;99.90;;;;;;5024767;28;20037;-75
2023/08/05 04:19:25;;;;;;;17.30;6.00;;;13.70;99.90;;;;;;5024582;28;20026;-76
2023/08/05 04:21:52;;;;;;;13.85;5.82;;;13.70;99.90;;;;;;5024717;28;20037;-75
2023/08/05 04:24:22;;;;;;;13.90;5.78;;;13.70;99.90;;;;;;5028464;28;20030;-74
2023/08/05 04:26:50;;;;;;;11.88;6.32;;;13.70;99.90;;;;;;5023419;28;20026;-75
2023/08/05 04:29:18;;;;;;;15.27;6.05;;;13.70;99.90;;;;;;5024193;28;20022;-74
2023/08/05 04:31:44;;;;;;;13.82;6.05;;;13.60;99.90;;;;;;5000178;28;20065;-73
2023/08/05 04:34:10;;;;;;;14.63;5.97;;;13.60;99.90;;;;;;4995163;28;20499;-74
2023/08/05 04:36:36;;;;;;;13.45;6.05;;;13.60;99.90;;;;;;5006753;28;20073;-74
2023/08/05 04:39:03;;;;;;;15.75;5.50;;;13.60;99.90;;;;;;5017684;28;20030;-74
2023/08/05 04:41:31;;;;;;;13.85;6.50;;;13.60;99.90;;;;;;5017942;28;20060;-74
2023/08/05 04:43:57;;;;;;;12.73;6.28;;;13.70;99.90;;;;;;5004135;28;20608;-74
2023/08/05 04:46:24;;;;;;;15.70;6.50;;;13.60;99.90;;;;;;4999552;28;20030;-74
2023/08/05 04:48:51;;;;;;;13.98;5.88;;;13.70;99.90;;;;;;5011672;28;20030;-74
2023/08/05 04:51:17;;;;;;;17.30;6.15;;;13.60;99.90;;;;;;4998109;28;20247;-74
2023/08/05 04:53:44;;;;;;;15.15;5.82;;;13.70;99.90;;;;;;4998932;28;20519;-73
2023/08/05 04:56:11;;;;;;;13.18;6.00;;;13.70;99.90;;;;;;5005271;28;20030;-74
2023/08/05 04:58:37;;;;;;;8.43;5.38;;;13.70;99.90;;;;;;5014797;28;20086;-73
2023/08/05 05:01:02;;;;;;;11.57;5.43;;;13.80;99.90;;;;;;5021519;28;20045;-74
2023/08/05 05:03:29;;;;;;;16.60;5.72;;;13.80;99.90;;;;;;5022680;28;20057;-75
2023/08/05 05:05:55;;;;;;;14.32;5.88;;;13.80;99.90;;;;;;5022757;28;20781;-74
2023/08/05 05:08:23;;;;;;;9.23;5.25;;;13.80;99.90;;;;;;5024250;28;20053;-76
2023/08/05 05:10:49;;;;;;;17.65;6.20;;;13.80;99.90;;;;;;5020480;28;20080;-74
2023/08/05 05:13:15;;;;;;;14.93;5.07;;;13.90;99.90;;;;;;5022073;28;20046;-74
2023/08/05 05:15:41;;;;;;;15.05;5.80;;;13.90;99.90;;;;;;5016168;28;20044;-73
2023/08/05 05:18:06;;;;;;;11.93;5.47;;;14.00;99.90;;;;;;5015104;28;20343;-73
2023/08/05 05:20:33;;;;;;;17.58;6.07;;;14.00;99.90;;;;;;5019437;28;20037;-74
2023/08/05 05:22:59;;;;;;;15.18;6.15;;;14.00;99.90;;;;;;5002849;28;20149;-74
2023/08/05 05:25:25;;;;;;;11.55;5.50;;;14.10;99.90;;;;;;5001650;28;20118;-75
2023/08/05 05:27:51;;;;;;;13.45;6.05;;;14.10;99.90;;;;;;5020399;28;20026;-74
2023/08/05 05:30:16;;;;;;;17.33;6.25;;;14.20;99.90;;;;;;5018364;28;20396;-73
2023/08/05 05:32:42;;;;;;;16.35;5.63;;;14.20;99.90;;;;;;5012702;28;20077;-75
2023/08/05 05:35:08;;;;;;;14.30;6.07;;;14.20;99.90;;;;;;5021867;28;20496;-73
2023/08/05 05:37:34;;;;;;;12.65;5.68;;;14.20;99.90;;;;;;5023033;28;20040;-74
2023/08/05 05:40:00;;;;;;;16.92;7.07;;;14.30;99.90;;;;;;5024540;28;20034;-74
2023/08/05 05:42:25;;;;;;;15.98;6.75;;;14.30;99.90;;;;;;5024212;28;20033;-73
2023/08/05 05:44:53;;;;;;;16.60;7.47;;;14.40;99.90;;;;;;5024524;28;20044;-74
2023/08/05 05:47:21;;;;;;;18.95;6.97;;;14.40;99.90;;;;;;5024919;28;20041;-74
2023/08/05 05:49:47;;;;;;;15.60;6.80;;;14.40;99.90;;;;;;5024252;28;20469;-72
2023/08/05 05:52:16;;;;;;;16.70;6.97;;;14.50;99.90;;;;;;5024499;28;20050;-74
2023/08/05 05:54:43;;;;;;;16.25;7.43;;;14.50;99.90;;;;;;5025213;28;20048;-73
2023/08/05 05:57:09;;;;;;;18.77;7.07;;;14.50;99.90;;;;;;5024077;28;20029;-73
2023/08/05 05:59:34;;;;;;;20.42;7.40;;;14.60;99.90;;;;;;5024786;28;20041;-73
2023/08/05 06:02:00;;;;;;;18.85;7.28;;;14.60;99.90;;;;;;5021986;28;20057;-73
2023/08/05 06:04:28;;;;;;;16.52;6.85;;;14.60;99.90;;;;;;5014029;28;20105;-74
2023/08/05 06:06:54;;;;;;;13.40;7.35;;;14.70;99.90;;;;;;5005266;28;20030;-74
2023/08/05 06:09:20;;;;;;;22.95;7.53;;;14.70;99.90;;;;;;5007806;28;20042;-73
2023/08/05 06:11:46;;;;;;;15.50;6.95;;;14.80;99.90;;;;;;5008356;28;20032;-72
2023/08/05 06:14:12;;;;;;;15.85;6.43;;;14.80;99.90;;;;;;5014882;28;20046;-73
2023/08/05 06:16:38;;;;;;;11.88;5.70;;;14.90;99.90;;;;;;5024597;28;20098;-74
2023/08/05 06:19:04;;;;;;;17.30;5.65;;;14.90;99.90;;;;;;5024443;28;20034;-73
2023/08/05 06:21:30;;;;;;;14.38;5.97;;;15.00;99.90;;;;;;5027189;28;20033;-75
2023/08/05 06:23:55;;;;;;;15.73;6.25;;;15.00;99.90;;;;;;5023427;28;20037;-70
2023/08/05 06:26:21;;;;;;;17.00;6.60;;;15.10;99.90;;;;;;5015586;28;20054;-72
2023/08/05 06:28:46;;;;;;;17.83;6.38;;;15.10;99.90;;;;;;5023955;28;20029;-71
2023/08/05 06:31:12;;;;;;;17.63;6.20;;;15.20;99.90;;;;;;5019138;28;20117;-71
2023/08/05 06:33:38;;;;;;;10.00;5.90;;;15.20;99.90;;;;;;5008715;28;20399;-72
2023/08/05 06:36:03;;;;;;;10.05;5.80;;;15.30;99.90;;;;;;5023041;28;20034;-71
2023/08/05 06:38:29;;;;;;;12.15;5.90;;;15.30;99.90;;;;;;5020183;28;20077;-71
2023/08/05 06:40:55;;;;;;;15.55;6.13;;;15.40;99.90;;;;;;5004367;28;20114;-70
2023/08/05 06:43:21;;;;;;;17.70;5.82;;;15.40;99.90;;;;;;5004515;28;20037;-71
2023/08/05 06:45:47;;;;;;;14.68;5.53;;;15.40;99.90;;;;;;5013118;28;20108;-71
2023/08/05 06:48:13;;;;;;;13.52;5.53;;;15.50;99.90;;;;;;5020961;28;20061;-73
2023/08/05 06:50:39;;;;;;;16.90;5.60;;;15.50;99.90;;;;;;5023939;28;20022;-72
2023/08/05 06:53:05;;;;;;;19.48;5.97;;;15.60;99.90;;;;;;5023111;28;20058;-73
2023/08/05 06:55:30;;;;;;;13.35;5.40;;;15.70;99.90;;;;;;5008873;28;20058;-72
2023/08/05 06:57:56;;;;;;;18.38;5.88;;;15.70;99.90;;;;;;5009883;28;20022;-74
2023/08/05 07:00:21;;;;;;;18.55;5.30;;;15.80;99.90;;;;;;5024214;28;20065;-74
2023/08/05 07:02:47;;;;;;;16.63;5.40;;;15.90;99.90;;;;;;5012771;28;20446;-72
2023/08/05 07:05:13;;;;;;;14.98;5.55;;;15.90;99.90;;;;;;5014125;28;20897;-72
2023/08/05 07:07:38;;;;;;;15.05;5.60;;;16.00;99.90;;;;;;5014863;28;20038;-73
2023/08/05 07:10:07;;;;;;;12.20;5.50;;;16.10;99.90;;;;;;5015171;28;20043;-71
2023/08/05 07:12:37;;;;;;;17.02;4.57;;;16.10;99.90;;;;;;5009269;28;20030;-72
2023/08/05 07:15:05;;;;;;;13.18;4.38;;;16.20;99.90;;;;;;5026558;28;20084;-71
2023/08/05 07:17:31;;;;;;;18.23;4.38;;;16.20;99.90;;;;;;5022441;28;20098;-72
2023/08/05 07:19:58;;;;;;;9.77;3.80;;;16.30;99.90;;;;;;5021074;28;20065;-72
2023/08/05 07:22:24;;;;;;;9.63;3.38;;;16.40;99.90;;;;;;5018822;28;20475;-74
2023/08/05 07:24:53;;;;;;;9.32;3.15;;;16.50;99.90;;;;;;5026251;28;20048;-71
2023/08/05 07:27:19;;;;;;;6.00;3.10;;;16.50;99.90;;;;;;5026186;28;20026;-72
2023/08/05 07:29:45;;;;;;;8.38;3.30;;;16.60;99.90;;;;;;5021982;28;20120;-73
2023/08/05 07:32:10;;;;;;;9.15;3.15;;;16.70;99.90;;;;;;5015973;28;20018;-70
2023/08/05 07:34:37;;;;;;;10.55;3.42;;;16.70;99.90;;;;;;5013676;28;20061;-74
2023/08/05 07:37:02;;;;;;;8.13;3.30;;;16.80;99.90;;;;;;5033039;28;20033;-71
2023/08/05 07:39:33;;;;;;;5.00;2.97;;;16.80;99.90;;;;;;5026408;28;20036;-76
2023/08/05 07:42:03;;;;;;;4.65;2.80;;;16.90;99.90;;;;;;5025805;28;20053;-72
2023/08/05 07:44:33;;;;;;;6.47;3.15;;;17.00;99.90;;;;;;5026461;28;20475;-73
2023/08/05 07:46:59;;;;;;;7.70;2.55;;;17.10;99.90;;;;;;5034591;28;20390;-73
2023/08/05 07:49:25;;;;;;;9.20;2.80;;;17.20;99.90;;;;;;5036682;28;20034;-73
2023/08/05 07:51:53;;;;;;;5.43;2.95;;;17.30;99.90;;;;;;5025681;28;20156;-73
2023/08/05 07:54:20;;;;;;;7.03;2.80;;;17.40;99.90;;;;;;5027387;28;20045;-73
2023/08/05 07:56:45;;;;;;;6.07;3.00;;;17.40;99.90;;;;;;5028917;28;20037;-72
2023/08/05 07:59:12;;;;;;;5.88;2.30;;;17.50;99.90;;;;;;5021914;28;20037;-74
2023/08/05 08:01:42;;;;;;;8.02;2.80;;;17.40;99.90;;;;;;5007513;28;20069;-74
2023/08/05 08:04:09;;;;;;;5.80;2.50;;;17.40;99.90;;;;;;5021261;28;20231;-73
2023/08/05 08:06:35;;;;;;;8.40;2.50;;;17.40;99.90;;;;;;5027081;28;20030;-75
2023/08/05 08:09:01;;;;;;;6.25;2.30;;;17.30;99.90;;;;;;5029091;28;20059;-72
2023/08/05 08:11:27;;;;;;;4.95;2.10;;;17.30;99.90;;;;;;5028597;28;20048;-73
2023/08/05 08:13:52;;;;;;;4.40;2.28;;;17.20;99.90;;;;;;5026074;28;20042;-75
2023/08/05 08:16:18;;;;;;;5.40;2.40;;;17.20;99.90;;;;;;5022428;28;20053;-73
2023/08/05 08:18:44;;;;;;;4.88;2.10;;;17.20;99.90;;;;;;5019746;28;20922;-74
2023/08/05 08:21:10;;;;;;;7.30;2.67;;;17.30;99.90;;;;;;5024117;28;20509;-73
2023/08/05 08:23:36;;;;;;;5.05;2.40;;;17.40;99.90;;;;;;5023182;28;20033;-73
2023/08/05 08:26:01;;;;;;;6.55;2.65;;;17.50;99.90;;;;;;5027500;28;20030;-74
2023/08/05 08:28:27;;;;;;;7.38;2.88;;;17.60;99.90;;;;;;5041162;28;20034;-74
2023/08/05 08:30:57;;;;;;;10.48;2.42;;;17.50;99.90;;;;;;5032320;28;20053;-73
2023/08/05 08:33:24;;;;;;;8.18;2.65;;;17.60;99.90;;;;;;5024969;28;20068;-70
2023/08/05 08:35:50;;;;;;;6.20;2.50;;;17.50;99.90;;;;;;5018428;28;20032;-73
2023/08/05 08:38:17;;;;;;;6.13;2.33;;;17.60;99.90;;;;;;5026377;28;20029;-72
2023/08/05 08:40:47;;;;;;;7.00;2.33;;;17.60;99.90;;;;;;5012172;28;20173;-74
2023/08/05 08:43:16;;;;;;;6.20;2.40;;;17.70;99.90;;;;;;5007224;28;20030;-73
2023/08/05 08:45:43;;;;;;;2.85;1.90;;;17.90;99.90;;;;;;5023514;28;20076;-74
2023/08/05 08:48:09;;;;;;;6.43;2.10;;;18.00;99.90;;;;;;5023654;28;20034;-74
2023/08/05 08:50:36;;;;;;;4.55;2.08;;;18.20;99.90;;;;;;5023917;28;20092;-72
2023/08/05 08:53:01;;;;;;;3.50;2.20;;;18.30;99.90;;;;;;5012673;28;20054;-74
2023/08/05 08:55:29;;;;;;;6.97;2.45;;;18.60;99.90;;;;;;5019260;28;20041;-74
2023/08/05 08:57:55;;;;;;;7.22;2.22;;;18.80;99.90;;;;;;5024803;28;20026;-70
2023/08/05 09:00:21;;;;;;;7.22;2.20;;;18.90;99.90;;;;;;5023717;28;20014;-72
2023/08/05 09:02:47;;;;;;;5.90;2.20;;;19.00;99.90;;;;;;5018994;28;20044;-69
2023/08/05 09:05:14;;;;;;;5.72;2.58;;;19.20;99.90;;;;;;5023805;28;20060;-72
2023/08/05 09:07:40;;;;;;;5.40;1.83;;;19.30;99.90;;;;;;5023737;28;20045;-72
2023/08/05 09:10:07;;;;;;;4.03;2.00;;;19.30;99.90;;;;;;5023234;28;20501;-71
2023/08/05 09:12:33;;;;;;;7.78;2.08;;;19.40;99.90;;;;;;5005569;28;20029;-71
2023/08/05 09:15:01;;;;;;;5.63;2.13;;;19.40;99.90;;;;;;5020406;28;20025;-69
2023/08/05 09:17:37;;;;;;;4.93;2.00;;;19.50;99.90;;;;;;5022693;28;20034;-74
2023/08/05 09:20:16;;;;;;;6.25;1.90;;;19.60;99.90;;;;;;5021054;28;20094;-73
2023/08/05 09:22:53;;;;;;;6.78;2.25;;;19.60;99.90;;;;;;5018020;28;20061;-71
2023/08/05 09:25:19;;;;;;;6.10;2.30;;;19.80;99.90;;;;;;5017956;28;20064;-70
2023/08/05 09:27:53;;;;;;;5.57;2.08;;;19.80;99.90;;;;;;5010540;28;20057;-72
2023/08/05 09:30:21;;;;;;;4.65;2.20;;;19.70;99.90;;;;;;5019340;28;20045;-72
2023/08/05 09:32:47;;;;;;;8.13;2.28;;;19.60;99.90;;;;;;5020867;28;20042;-74
2023/08/05 09:35:15;;;;;;;6.25;2.33;;;19.50;99.90;;;;;;5021761;28;20029;-70
2023/08/05 09:37:49;;;;;;;6.75;2.17;;;19.40;99.90;;;;;;5021825;28;20038;-69
2023/08/05 09:40:22;;;;;;;6.60;2.50;;;19.40;99.90;;;;;;5018437;28;20026;-70
2023/08/05 09:42:59;;;;;;;5.90;2.20;;;19.60;99.90;;;;;;5012390;28;20092;-71
2023/08/05 09:45:28;;;;;;;6.20;2.40;;;19.70;99.90;;;;;;5007681;28;20332;-72
2023/08/05 09:48:04;;;;;;;5.10;2.53;;;19.70;99.90;;;;;;5017380;28;20023;-73
2023/08/05 09:50:32;;;;;;;6.25;2.67;;;19.80;99.90;;;;;;5019075;28;20026;-73
2023/08/05 09:53:09;;;;;;;6.53;2.50;;;19.80;99.90;;;;;;5090414;28;20418;-69
2023/08/05 09:55:38;;;;;;;7.10;2.40;;;19.60;99.90;;;;;;5100444;28;20029;-70
2023/08/05 09:58:07;;;;;;;7.43;2.60;;;19.50;99.90;;;;;;5084877;28;20021;-74
2023/08/05 10:00:36;;;;;;;6.63;2.53;;;19.30;99.90;;;;;;5088514;28;20107;-72
2023/08/05 10:03:06;;;;;;;5.57;2.72;;;19.30;99.90;;;;;;5098171;28;20021;-71
2023/08/05 10:05:33;;;;;;;6.55;2.60;;;19.40;99.90;;;;;;5098069;28;20037;-72
2023/08/05 10:08:00;;;;;;;6.03;2.80;;;19.60;99.90;;;;;;5100214;28;20025;-74
2023/08/05 10:10:30;;;;;;;5.20;2.47;;;19.70;99.90;;;;;;5097597;28;20094;-75
2023/08/05 10:13:02;;;;;;;4.18;2.30;;;19.90;99.90;;;;;;5094440;28;20047;-76
2023/08/05 10:15:35;;;;;;;9.30;3.03;;;20.00;99.90;;;;;;5098360;28;20020;-74
2023/08/05 10:18:01;;;;;;;4.90;2.20;;;20.00;99.90;;;;;;5097179;28;20027;-74
2023/08/05 10:20:34;;;;;;;6.70;2.28;;;20.20;99.90;;;;;;5096049;28;20024;-71
2023/08/05 10:23:05;;;;;;;5.47;2.55;;;20.50;99.90;;;;;;5092224;28;20044;-73
2023/08/05 10:25:46;;;;;;;7.38;2.30;;;20.60;99.90;;;;;;5089568;28;20076;-70
2023/08/05 10:28:25;;;;;;;5.45;2.60;;;20.70;99.90;;;;;;5099161;28;20032;-74
2023/08/05 10:30:53;;;;;;;4.70;2.50;;;20.60;99.90;;;;;;5096595;28;20082;-73
2023/08/05 10:33:19;;;;;;;3.92;2.20;;;20.50;99.90;;;;;;5096595;28;20044;-71
2023/08/05 10:35:45;;;;;;;5.05;2.40;;;20.40;99.90;;;;;;5090530;28;20026;-72
2023/08/05 10:38:23;;;;;;;6.30;2.53;;;20.20;99.90;;;;;;5100401;28;20032;-71
2023/08/05 10:41:00;;;;;;;5.47;2.40;;;20.20;99.90;;;;;;5095454;28;20087;-73
2023/08/05 10:43:31;;;;;;;4.63;2.30;;;20.20;99.90;;;;;;5090457;28;20032;-72
2023/08/05 10:46:17;;;;;;;5.55;2.50;;;20.40;99.90;;;;;;5089123;28;20024;-73
2023/08/05 10:48:44;;;;;;;8.13;2.60;;;20.60;99.90;;;;;;5089370;28;20123;-72
2023/08/05 10:51:16;;;;;;;5.00;2.25;;;20.90;99.90;;;;;;5085517;28;20056;-71
2023/08/05 10:53:59;;;;;;;5.57;2.20;;;21.10;99.90;;;;;;5083284;28;20087;-72
2023/08/05 10:56:32;;;;;;;6.95;2.50;;;20.90;99.90;;;;;;5090749;28;20059;-71
2023/08/05 10:59:01;;;;;;;6.00;2.28;;;20.70;99.90;;;;;;5078975;28;20028;-72
2023/08/05 11:01:54;;;;;;;10.30;2.50;;;20.60;99.90;;;;;;5078519;28;20064;-72
2023/08/05 11:04:28;;;;;;;5.63;2.15;;;20.50;99.90;;;;;;5065677;28;20058;-72
2023/08/05 11:06:54;;;;;;;5.45;2.65;;;20.50;99.90;;;;;;5066660;28;20108;-70
2023/08/05 11:09:22;;;;;;;5.45;2.50;;;20.60;99.90;;;;;;5066455;28;20033;-71
2023/08/05 11:11:51;;;;;;;7.30;2.00;;;20.60;99.90;;;;;;5066180;28;20047;-71
2023/08/05 11:14:19;;;;;;;5.18;2.10;;;20.50;99.90;;;;;;5076224;28;20084;-70
2023/08/05 11:16:45;;;;;;;4.85;2.40;;;20.40;99.90;;;;;;5084015;28;20638;-72
2023/08/05 11:19:12;;;;;;;4.00;2.20;;;20.50;99.90;;;;;;5084315;28;20062;-70
2023/08/05 11:21:42;;;;;;;4.63;2.40;;;20.50;99.90;;;;;;5086223;28;20020;-70
2023/08/05 11:24:15;;;;;;;7.50;2.22;;;20.50;99.90;;;;;;5084153;28;20060;-72
2023/08/05 11:26:40;;;;;;;7.82;2.38;;;20.50;99.90;;;;;;5084531;28;20362;-73
2023/08/05 11:29:07;;;;;;;6.78;2.42;;;20.50;99.90;;;;;;5085067;28;20055;-72
2023/08/05 11:31:33;;;;;;;8.98;2.58;;;20.60;99.90;;;;;;5085124;28;20043;-71
2023/08/05 11:33:58;;;;;;;5.38;2.13;;;20.70;99.90;;;;;;5084879;28;20024;-72
2023/08/05 11:36:28;;;;;;;3.50;2.30;;;20.80;99.90;;;;;;5084598;28;20024;-71
2023/08/05 11:38:59;;;;;;;6.80;2.88;;;20.70;99.90;;;;;;5085749;28;20044;-70
2023/08/05 11:41:26;;;;;;;5.38;2.30;;;20.70;99.90;;;;;;5086270;28;20052;-72
2023/08/05 11:43:55;;;;;;;5.10;2.20;;;20.70;99.90;;;;;;5085630;28;20107;-71
2023/08/05 11:46:25;;;;;;;5.32;2.40;;;20.60;99.90;;;;;;5085242;28;20032;-71
2023/08/05 11:49:06;;;;;;;5.35;2.25;;;20.70;99.90;;;;;;5085431;28;20058;-72
2023/08/05 11:51:48;;;;;;;5.50;2.55;;;21.00;99.90;;;;;;5070394;28;20167;-71
2023/08/05 11:54:28;;;;;;;5.18;2.28;;;21.10;99.90;;;;;;5064886;28;20025;-70
2023/08/05 11:56:54;;;;;;;5.13;2.30;;;21.00;99.90;;;;;;5064671;28;20029;-75
2023/08/05 11:59:39;;;;;;;5.65;2.10;;;21.20;99.90;;;;;;5066221;28;20033;-72
2023/08/05 12:02:07;;;;;;;7.38;2.40;;;21.50;99.90;;;;;;5082679;28;20017;-69
2023/08/05 12:04:43;;;;;;;4.88;2.30;;;21.70;99.90;;;;;;5082423;28;20059;-72
2023/08/05 12:07:28;;;;;;;5.07;2.00;;;21.80;99.90;;;;;;5084781;28;20028;-72
2023/08/05 12:10:12;;;;;;;5.90;2.22;;;22.00;99.90;;;;;;5083806;28;20034;-70
2023/08/05 12:12:41;;;;;;;5.10;2.33;;;22.20;99.90;;;;;;5080516;28;20028;-73
2023/08/05 12:15:24;;;;;;;3.58;2.25;;;22.40;99.90;;;;;;5083720;28;20044;-73
2023/08/05 12:17:51;;;;;;;6.95;2.15;;;22.50;99.90;;;;;;5085710;28;20033;-70
2023/08/05 12:20:19;;;;;;;4.22;2.38;;;22.60;99.90;;;;;;5085749;28;20489;-72
2023/08/05 12:22:46;;;;;;;7.88;2.10;;;22.70;99.90;;;;;;5085392;28;20025;-72
2023/08/05 12:25:12;;;;;;;4.22;2.38;;;22.60;99.90;;;;;;5085173;28;20032;-72
2023/08/05 12:27:39;;;;;;;3.75;2.15;;;22.60;99.90;;;;;;5085192;28;20016;-72
2023/08/05 12:30:06;;;;;;;5.63;2.13;;;22.50;99.90;;;;;;5084195;28;20020;-69
2023/08/05 12:32:33;;;;;;;4.30;2.28;;;22.60;99.90;;;;;;5084840;28;20037;-70
2023/08/05 12:35:00;;;;;;;4.97;2.67;;;22.70;99.90;;;;;;5073204;28;20025;-72
2023/08/05 12:37:26;;;;;;;5.10;2.38;;;22.60;99.90;;;;;;5065258;28;20108;-73
2023/08/05 12:39:51;;;;;;;3.15;2.00;;;22.70;99.90;;;;;;5064692;28;20056;-73
2023/08/05 12:42:17;;;;;;;3.92;2.40;;;22.80;99.90;;;;;;5064977;28;20501;-73